Decoded Metar for KCCY (CHARLES CITY in IA, USA) (IATA:CCY) | Meteo·Mobile Aviation Weather
aviador You're here:

KCCY Decoded Metar

CHARLES CITY in IA, USA
Report Time2019-05-22 18:35:00
UTC Time2019-05-22 19:01:43
Flight Rules vfr VFR
Wind210° at 21 Gusting to 30 kt
W.Decomp.*RWY 22: 20.5 kt HW 4.7 kt LCW
RWY 18: 18.7 kt HW 9.5 kt RCW
RWY 12: 1.1 kt HW 21.0 kt RCW
Visibility9999 m
Phenomena:N/A
Clouds:N/A
Expected CloudBase > 3,600 ft AGL from Temp-Dew spread
CeilingNone
Temp20°C (ISA +7)
Dew Point11°C (56% RH)
AAT12.7°C
QNH1003 hPa
Density Alt2,487 ft
Elevation1,125 ft
Report Wrong Elevation
Raw Report
KCCY 221835Z AUTO 21021G30KT 10SM CLR 20/11 A2963 RMK AO2=

Extra information for KCCY:More info

Metar Taf Metar & Taf Last 4 Metars F.Rules Stats Wind Profile Meteogram Temp Stats Airport Information Weather charts Add Link Nearby VenuesMetar ALERT Operation Metar Decoded Social comments

AIRNAV info for KCCY